Time;durP1;ratioP1;P1;durP2;ratioP2;P2;SDS_P1;SDS_P2;PMS_P1;PMS_P2;Temp;Humidity;BMP_temperature;BMP_pressure;BME280_temperature;BME280_humidity;BME280_pressure;Samples;Min_cycle;Max_cycle;Signal;HPM_P1;HPM_P2
2021/12/03 00:00:12;;;;;;;14.20;6.10;;;0.80;99.90;;;;;;5054626;28;20045;-76
2021/12/03 00:02:38;;;;;;;12.60;6.40;;;0.80;99.90;;;;;;5054958;28;20045;-75
2021/12/03 00:05:04;;;;;;;12.27;6.45;;;0.80;99.90;;;;;;5054909;28;20447;-75
2021/12/03 00:07:29;;;;;;;13.70;6.43;;;0.80;99.90;;;;;;5054042;28;20052;-76
2021/12/03 00:09:57;;;;;;;14.35;6.60;;;0.90;99.90;;;;;;5055000;28;20041;-74
2021/12/03 00:12:22;;;;;;;10.88;6.18;;;0.80;99.90;;;;;;5054612;28;20049;-76
2021/12/03 00:14:48;;;;;;;12.32;7.35;;;0.80;99.90;;;;;;5054357;28;20493;-75
2021/12/03 00:17:14;;;;;;;13.63;7.03;;;0.80;99.90;;;;;;5037935;28;20063;-75
2021/12/03 00:19:39;;;;;;;16.05;7.55;;;0.80;99.90;;;;;;5054504;28;20040;-74
2021/12/03 00:22:05;;;;;;;13.82;7.05;;;0.80;99.90;;;;;;5054735;28;20115;-75
2021/12/03 00:24:31;;;;;;;14.10;6.93;;;0.70;99.90;;;;;;5054803;28;20048;-76
2021/12/03 00:26:56;;;;;;;14.93;7.65;;;0.70;99.90;;;;;;5054045;28;20120;-77
2021/12/03 00:29:22;;;;;;;13.45;7.40;;;0.70;99.90;;;;;;5054288;28;20041;-75
2021/12/03 00:31:47;;;;;;;10.60;6.50;;;0.70;99.90;;;;;;5054150;28;20403;-75
2021/12/03 00:34:13;;;;;;;16.20;7.32;;;0.70;99.90;;;;;;5038206;28;20074;-75
2021/12/03 00:36:39;;;;;;;12.57;7.30;;;0.70;99.90;;;;;;5037912;28;20033;-75
2021/12/03 00:39:05;;;;;;;11.48;7.22;;;0.70;99.90;;;;;;5053922;28;20049;-76
2021/12/03 00:41:34;;;;;;;11.45;7.13;;;0.70;99.90;;;;;;5037616;28;20574;-75
2021/12/03 00:44:00;;;;;;;12.77;7.70;;;0.70;99.90;;;;;;5053931;28;20558;-75
2021/12/03 00:46:25;;;;;;;13.48;7.10;;;0.70;99.90;;;;;;5038174;28;20128;-75
2021/12/03 00:48:54;;;;;;;13.25;7.20;;;0.70;99.90;;;;;;5038103;28;20033;-75
2021/12/03 00:51:22;;;;;;;10.43;7.15;;;0.70;99.90;;;;;;5054005;28;20382;-75
2021/12/03 00:53:48;;;;;;;14.48;7.13;;;0.70;99.90;;;;;;5053786;28;20479;-75
2021/12/03 00:56:15;;;;;;;13.32;7.60;;;0.70;99.90;;;;;;5053305;28;20048;-75
2021/12/03 00:58:41;;;;;;;12.82;8.35;;;0.70;99.90;;;;;;5053994;28;20044;-76
2021/12/03 01:01:07;;;;;;;16.83;8.60;;;0.60;99.90;;;;;;5053668;28;20410;-75
2021/12/03 01:03:34;;;;;;;14.15;8.13;;;0.60;99.90;;;;;;5053762;28;20051;-75
2021/12/03 01:06:01;;;;;;;15.48;8.40;;;0.60;99.90;;;;;;5037131;28;20045;-76
2021/12/03 01:08:26;;;;;;;14.80;9.05;;;0.60;99.90;;;;;;5053725;28;20047;-75
2021/12/03 01:10:52;;;;;;;15.07;8.80;;;0.50;99.90;;;;;;5053459;28;20146;-76
2021/12/03 01:13:18;;;;;;;15.80;9.40;;;0.50;99.90;;;;;;5037179;28;20382;-75
2021/12/03 01:15:44;;;;;;;17.65;10.05;;;0.50;99.90;;;;;;5053483;28;20106;-76
2021/12/03 01:18:11;;;;;;;18.83;10.25;;;0.50;99.90;;;;;;5053737;28;20041;-74
2021/12/03 01:20:39;;;;;;;20.30;11.00;;;0.50;99.90;;;;;;5036148;28;20048;-76
2021/12/03 01:23:05;;;;;;;21.05;10.93;;;0.50;99.90;;;;;;5053540;28;20048;-75
2021/12/03 01:25:31;;;;;;;19.15;11.55;;;0.50;99.90;;;;;;5036311;28;20410;-75
2021/12/03 01:27:59;;;;;;;19.70;11.93;;;0.50;99.90;;;;;;5053051;28;20541;-75
2021/12/03 01:30:25;;;;;;;21.77;11.43;;;0.50;99.90;;;;;;5052976;28;20049;-75
2021/12/03 01:32:51;;;;;;;21.75;12.35;;;0.50;99.90;;;;;;5053341;28;20051;-76
2021/12/03 01:35:18;;;;;;;24.52;12.68;;;0.50;99.90;;;;;;5052849;28;20037;-75
2021/12/03 01:37:44;;;;;;;21.90;13.48;;;0.50;99.90;;;;;;5036638;28;20045;-76
2021/12/03 01:40:18;;;;;;;19.33;13.07;;;0.50;99.90;;;;;;5052769;28;20045;-75
2021/12/03 01:42:45;;;;;;;22.35;13.30;;;0.50;99.90;;;;;;5036601;28;20570;-75
2021/12/03 01:45:14;;;;;;;22.95;14.70;;;0.50;99.90;;;;;;5053231;28;20430;-77
2021/12/03 01:47:44;;;;;;;25.25;15.35;;;0.50;99.90;;;;;;5052798;28;20037;-77
2021/12/03 01:50:11;;;;;;;23.50;15.35;;;0.50;99.90;;;;;;5053177;28;20033;-75
2021/12/03 01:52:37;;;;;;;24.88;15.07;;;0.50;99.90;;;;;;5052729;28;20131;-75
2021/12/03 01:55:06;;;;;;;25.15;16.30;;;0.50;99.90;;;;;;5053398;28;20041;-75
2021/12/03 01:57:31;;;;;;;25.73;16.80;;;0.50;99.90;;;;;;5053443;28;20155;-76
2021/12/03 01:59:57;;;;;;;25.10;16.98;;;0.50;99.90;;;;;;5036316;28;20481;-75
2021/12/03 02:02:23;;;;;;;28.23;17.45;;;0.50;99.90;;;;;;5051983;28;20037;-76
2021/12/03 02:04:49;;;;;;;33.08;19.67;;;0.50;99.90;;;;;;5052836;28;20049;-75
2021/12/03 02:07:15;;;;;;;28.23;17.50;;;0.50;99.90;;;;;;5052404;28;20048;-75
2021/12/03 02:09:40;;;;;;;29.60;18.58;;;0.50;99.90;;;;;;5036323;28;20032;-75
2021/12/03 02:12:07;;;;;;;30.23;19.27;;;0.50;99.90;;;;;;5052455;28;20124;-77
2021/12/03 02:14:32;;;;;;;35.42;19.67;;;0.50;99.90;;;;;;5052442;28;20036;-77
2021/12/03 02:16:58;;;;;;;30.20;18.95;;;0.50;99.90;;;;;;5051766;28;20044;-76
2021/12/03 02:19:24;;;;;;;34.05;19.88;;;0.50;99.90;;;;;;5052038;28;20502;-76
2021/12/03 02:21:49;;;;;;;32.28;20.58;;;0.50;99.90;;;;;;5051860;28;20123;-75
2021/12/03 02:24:21;;;;;;;31.70;20.25;;;0.60;99.90;;;;;;5053206;28;20048;-75
2021/12/03 02:26:46;;;;;;;30.65;19.67;;;0.50;99.90;;;;;;5052543;28;20048;-77
2021/12/03 02:29:12;;;;;;;34.47;20.25;;;0.60;99.90;;;;;;5052576;28;20032;-77
2021/12/03 02:31:38;;;;;;;30.95;20.48;;;0.60;99.90;;;;;;5051550;28;20049;-75
2021/12/03 02:34:03;;;;;;;32.90;21.10;;;0.60;99.90;;;;;;5052026;28;20045;-75
2021/12/03 02:36:29;;;;;;;28.30;19.55;;;0.60;99.90;;;;;;5052311;28;20037;-75
2021/12/03 02:38:55;;;;;;;31.42;20.08;;;0.60;99.90;;;;;;5035646;28;20037;-75
2021/12/03 02:41:20;;;;;;;30.50;20.25;;;0.60;99.90;;;;;;5052888;28;20127;-75
2021/12/03 02:43:46;;;;;;;28.13;19.20;;;0.60;99.90;;;;;;5052676;28;20037;-75
2021/12/03 02:46:12;;;;;;;29.58;19.55;;;0.60;99.90;;;;;;5051713;28;20391;-76
2021/12/03 02:48:39;;;;;;;31.77;19.98;;;0.60;99.90;;;;;;5051916;28;20033;-75
2021/12/03 02:51:06;;;;;;;33.97;20.95;;;0.60;99.90;;;;;;5034538;28;20052;-75
2021/12/03 02:53:33;;;;;;;29.00;20.02;;;0.70;99.90;;;;;;5035566;28;20047;-75
2021/12/03 02:55:59;;;;;;;30.52;19.83;;;0.60;99.90;;;;;;5052377;28;20037;-75
2021/12/03 02:58:24;;;;;;;30.30;20.23;;;0.70;99.90;;;;;;5052536;28;20066;-75
2021/12/03 03:00:51;;;;;;;29.13;19.80;;;0.70;99.90;;;;;;5035474;28;20118;-76
2021/12/03 03:03:16;;;;;;;28.98;20.13;;;0.70;99.90;;;;;;5051675;28;20076;-75
2021/12/03 03:05:51;;;;;;;30.80;21.10;;;0.70;99.90;;;;;;5051359;28;20076;-74
2021/12/03 03:08:16;;;;;;;30.10;20.95;;;0.70;99.90;;;;;;5035244;28;20037;-76
2021/12/03 03:10:42;;;;;;;32.63;20.23;;;0.70;99.90;;;;;;5035589;28;20095;-76
2021/12/03 03:13:08;;;;;;;28.25;20.30;;;0.70;99.90;;;;;;5052013;28;20094;-76
2021/12/03 03:15:34;;;;;;;30.40;21.00;;;0.70;99.90;;;;;;5035406;28;20136;-75
2021/12/03 03:18:19;;;;;;;34.70;20.63;;;0.70;99.90;;;;;;5051792;28;20044;-76
2021/12/03 03:20:45;;;;;;;28.58;19.65;;;0.70;99.90;;;;;;5035424;28;20131;-77
2021/12/03 03:23:13;;;;;;;28.88;20.05;;;0.70;99.90;;;;;;5052448;28;20175;-75
2021/12/03 03:25:40;;;;;;;27.70;20.60;;;0.70;99.90;;;;;;5052206;28;20040;-75
2021/12/03 03:28:07;;;;;;;26.92;19.50;;;0.60;99.90;;;;;;5051068;28;20041;-75
2021/12/03 03:30:33;;;;;;;25.73;19.55;;;0.60;99.90;;;;;;5051546;28;20152;-76
2021/12/03 03:33:01;;;;;;;27.00;19.48;;;0.70;99.90;;;;;;5051527;28;20049;-74
2021/12/03 03:35:27;;;;;;;27.77;19.48;;;0.70;99.90;;;;;;5052449;28;20037;-75
2021/12/03 03:37:52;;;;;;;23.58;19.00;;;0.70;99.90;;;;;;5051482;28;20399;-77
2021/12/03 03:40:18;;;;;;;27.80;18.90;;;0.70;99.90;;;;;;5051358;28;20072;-75
2021/12/03 03:42:45;;;;;;;30.45;19.02;;;0.70;99.90;;;;;;5052211;28;20471;-75
2021/12/03 03:45:18;;;;;;;26.30;18.90;;;0.70;99.90;;;;;;5038084;28;20467;-75
2021/12/03 03:47:45;;;;;;;25.05;18.50;;;0.70;99.90;;;;;;5056058;28;20033;-76
2021/12/03 03:50:14;;;;;;;30.35;19.63;;;0.70;99.90;;;;;;5055803;28;20044;-75
2021/12/03 03:52:40;;;;;;;26.40;20.15;;;0.60;99.90;;;;;;5054747;28;20620;-75
2021/12/03 03:55:12;;;;;;;26.95;19.17;;;0.70;99.90;;;;;;5054678;28;20037;-75
2021/12/03 03:57:38;;;;;;;24.85;19.73;;;0.70;99.90;;;;;;5054938;28;20094;-76
2021/12/03 04:00:07;;;;;;;26.33;19.48;;;0.70;99.90;;;;;;5054839;28;20048;-75
2021/12/03 04:02:33;;;;;;;29.38;20.48;;;0.70;99.90;;;;;;5055729;28;20040;-75
2021/12/03 04:04:58;;;;;;;25.38;18.58;;;0.70;99.90;;;;;;5054810;28;20110;-74
2021/12/03 04:07:24;;;;;;;25.98;18.58;;;0.70;99.90;;;;;;5037926;28;20069;-75
2021/12/03 04:09:49;;;;;;;27.92;20.13;;;0.70;99.90;;;;;;5054451;28;20055;-74
2021/12/03 04:12:15;;;;;;;24.50;19.95;;;0.70;99.90;;;;;;5054645;28;20049;-75
2021/12/03 04:14:41;;;;;;;28.80;20.50;;;0.70;99.90;;;;;;5054232;28;20127;-77
2021/12/03 04:17:08;;;;;;;25.33;19.35;;;0.70;99.90;;;;;;5072014;28;20076;-75
2021/12/03 04:19:33;;;;;;;23.85;19.83;;;0.70;99.90;;;;;;5054933;28;20037;-75
2021/12/03 04:21:59;;;;;;;27.65;20.55;;;0.70;99.90;;;;;;5054661;28;20048;-75
2021/12/03 04:24:25;;;;;;;25.85;19.98;;;0.70;99.90;;;;;;5054587;28;20059;-74
2021/12/03 04:26:50;;;;;;;28.30;20.27;;;0.70;99.90;;;;;;5054212;28;20044;-75
2021/12/03 04:29:16;;;;;;;25.75;19.67;;;0.70;99.90;;;;;;5053462;28;20102;-75
2021/12/03 04:31:42;;;;;;;27.83;20.42;;;0.70;99.90;;;;;;5054187;28;20041;-76
2021/12/03 04:34:07;;;;;;;25.23;19.95;;;0.70;99.90;;;;;;5054794;28;20045;-77
2021/12/03 04:36:33;;;;;;;32.42;21.45;;;0.70;99.90;;;;;;5054051;28;20033;-75
2021/12/03 04:38:59;;;;;;;28.35;21.42;;;0.70;99.90;;;;;;5053886;28;20040;-76
2021/12/03 04:41:25;;;;;;;26.38;20.70;;;0.70;99.90;;;;;;5054134;28;20049;-76
2021/12/03 04:43:50;;;;;;;30.05;21.85;;;0.70;99.90;;;;;;5053927;28;20059;-76
2021/12/03 04:46:16;;;;;;;26.63;20.52;;;0.70;99.90;;;;;;5053788;28;20041;-76
2021/12/03 04:48:42;;;;;;;29.50;22.27;;;0.70;99.90;;;;;;5054205;28;20099;-75
2021/12/03 04:51:08;;;;;;;28.90;21.20;;;0.70;99.90;;;;;;5054234;28;20387;-77
2021/12/03 04:53:33;;;;;;;29.98;21.67;;;0.70;99.90;;;;;;5053589;28;20052;-75
2021/12/03 04:55:59;;;;;;;31.48;22.38;;;0.70;99.90;;;;;;5054090;28;20083;-76
2021/12/03 04:58:25;;;;;;;30.10;20.90;;;0.70;99.90;;;;;;5037094;28;20485;-76
2021/12/03 05:00:54;;;;;;;35.35;22.73;;;0.70;99.90;;;;;;5054103;28;20084;-75
2021/12/03 05:03:24;;;;;;;28.33;22.27;;;0.70;99.90;;;;;;5054114;28;20055;-76
2021/12/03 05:05:57;;;;;;;32.33;22.15;;;0.70;99.90;;;;;;5053857;28;20131;-76
2021/12/03 05:08:24;;;;;;;33.88;22.33;;;0.70;99.90;;;;;;5053663;28;20040;-75
2021/12/03 05:10:51;;;;;;;36.33;23.75;;;0.70;99.90;;;;;;5053397;28;20041;-75
2021/12/03 05:13:29;;;;;;;36.15;22.83;;;0.70;99.90;;;;;;5054423;28;20077;-74
2021/12/03 05:15:55;;;;;;;34.13;23.05;;;0.70;99.90;;;;;;5053121;28;20369;-77
2021/12/03 05:18:24;;;;;;;32.78;22.33;;;0.70;99.90;;;;;;5053826;28;20037;-74
2021/12/03 05:20:54;;;;;;;33.00;22.83;;;0.60;99.90;;;;;;5053306;28;20041;-75
2021/12/03 05:23:22;;;;;;;41.25;23.27;;;0.60;99.90;;;;;;5053202;28;20045;-75
2021/12/03 05:25:48;;;;;;;32.72;23.23;;;0.70;99.90;;;;;;5053418;28;20120;-75
2021/12/03 05:28:15;;;;;;;38.50;23.42;;;0.70;99.90;;;;;;5053613;28;20033;-75
2021/12/03 05:30:41;;;;;;;30.50;21.45;;;0.70;99.90;;;;;;5053148;28;20049;-75
2021/12/03 05:33:07;;;;;;;35.05;23.98;;;0.60;99.90;;;;;;5053190;28;20045;-75
2021/12/03 05:35:33;;;;;;;38.40;23.88;;;0.70;99.90;;;;;;5035955;28;20037;-75
2021/12/03 05:37:59;;;;;;;37.15;24.48;;;0.70;99.90;;;;;;5036345;28;20041;-75
2021/12/03 05:40:25;;;;;;;41.22;23.88;;;0.70;99.90;;;;;;5053356;28;20388;-75
2021/12/03 05:42:51;;;;;;;33.65;24.00;;;0.70;99.90;;;;;;5052903;28;20056;-75
2021/12/03 05:45:21;;;;;;;40.47;24.27;;;0.70;99.90;;;;;;5036120;28;20372;-76
2021/12/03 05:47:47;;;;;;;33.47;23.63;;;0.70;99.90;;;;;;5052158;28;20406;-74
2021/12/03 05:50:14;;;;;;;38.03;24.80;;;0.80;99.90;;;;;;5053066;28;20040;-78
2021/12/03 05:52:40;;;;;;;38.10;24.15;;;0.80;99.90;;;;;;5052644;28;20052;-76
2021/12/03 05:55:07;;;;;;;41.13;25.27;;;0.80;99.90;;;;;;5036601;28;20036;-77
2021/12/03 05:57:33;;;;;;;45.10;23.90;;;0.80;99.90;;;;;;5069815;28;20045;-75
2021/12/03 05:59:59;;;;;;;35.67;23.42;;;0.80;99.90;;;;;;5052545;28;20045;-75
2021/12/03 06:02:25;;;;;;;37.33;23.48;;;0.80;99.90;;;;;;5052487;28;20124;-76
2021/12/03 06:04:50;;;;;;;37.00;24.15;;;0.80;99.90;;;;;;5052543;28;20483;-75
2021/12/03 06:07:16;;;;;;;40.13;24.33;;;0.80;99.90;;;;;;5051913;28;20086;-77
2021/12/03 06:09:42;;;;;;;38.10;22.83;;;0.80;99.90;;;;;;5052796;28;20082;-76
2021/12/03 06:12:09;;;;;;;37.38;23.67;;;0.80;99.90;;;;;;5052857;28;20052;-77
2021/12/03 06:14:35;;;;;;;36.78;23.38;;;0.80;99.90;;;;;;5052728;28;20090;-76
2021/12/03 06:17:00;;;;;;;39.95;23.15;;;0.80;99.90;;;;;;5052378;28;20425;-76
2021/12/03 06:19:26;;;;;;;43.67;22.50;;;0.90;99.90;;;;;;5052481;28;20041;-76
2021/12/03 06:21:52;;;;;;;37.03;23.77;;;0.90;99.90;;;;;;5052194;28;20037;-75
2021/12/03 06:24:18;;;;;;;37.22;22.55;;;0.90;99.90;;;;;;5052299;28;20045;-76
2021/12/03 06:26:44;;;;;;;35.35;22.08;;;0.90;99.90;;;;;;5035215;28;20071;-76
2021/12/03 06:29:10;;;;;;;34.58;23.23;;;0.90;99.90;;;;;;5051723;28;20044;-77
2021/12/03 06:31:36;;;;;;;37.53;22.58;;;0.90;99.90;;;;;;5052139;28;20045;-75
2021/12/03 06:34:02;;;;;;;32.95;21.35;;;0.90;99.90;;;;;;5052156;28;20178;-76
2021/12/03 06:36:27;;;;;;;36.08;22.42;;;1.00;99.90;;;;;;5035497;28;20436;-75
2021/12/03 06:38:53;;;;;;;35.72;22.42;;;1.00;99.90;;;;;;5052414;28;20036;-76
2021/12/03 06:41:19;;;;;;;37.00;22.52;;;1.00;99.90;;;;;;5052430;28;20556;-75
2021/12/03 06:43:45;;;;;;;34.67;21.98;;;1.10;99.90;;;;;;5052719;28;20131;-76
2021/12/03 06:46:11;;;;;;;34.67;21.45;;;1.10;99.90;;;;;;5052095;28;20043;-76
2021/12/03 06:48:37;;;;;;;36.75;21.60;;;1.10;99.90;;;;;;5035449;28;20394;-75
2021/12/03 06:51:02;;;;;;;37.45;21.92;;;1.10;99.90;;;;;;5051455;28;20037;-75
2021/12/03 06:53:40;;;;;;;33.88;21.45;;;1.10;99.90;;;;;;5052211;28;20530;-75
2021/12/03 06:56:08;;;;;;;36.70;23.17;;;1.20;99.90;;;;;;5052338;28;20071;-75
2021/12/03 06:58:34;;;;;;;40.22;22.58;;;1.20;99.90;;;;;;5051437;28;20048;-74
2021/12/03 07:01:00;;;;;;;40.15;22.23;;;1.20;99.90;;;;;;5035538;28;20128;-76
2021/12/03 07:03:26;;;;;;;39.92;22.42;;;1.30;99.90;;;;;;5051811;28;20449;-75
2021/12/03 07:05:52;;;;;;;42.72;22.95;;;1.30;99.90;;;;;;5052337;28;20071;-75
2021/12/03 07:08:18;;;;;;;42.30;23.63;;;1.30;99.90;;;;;;5051594;28;20045;-74
2021/12/03 07:10:43;;;;;;;37.58;22.42;;;1.30;99.90;;;;;;5035949;28;20487;-75
2021/12/03 07:13:10;;;;;;;38.97;23.85;;;1.30;99.90;;;;;;5051865;28;20076;-78
2021/12/03 07:15:35;;;;;;;44.33;24.35;;;1.30;99.90;;;;;;5051954;28;20037;-75
2021/12/03 07:18:02;;;;;;;44.58;24.52;;;1.40;99.90;;;;;;5052898;28;20040;-76
2021/12/03 07:20:28;;;;;;;41.45;24.85;;;1.40;99.90;;;;;;5055848;28;20041;-75
2021/12/03 07:22:55;;;;;;;47.85;25.75;;;1.40;99.90;;;;;;5056049;28;20131;-75
2021/12/03 07:25:21;;;;;;;45.20;25.33;;;1.40;99.90;;;;;;5038516;28;20044;-74
2021/12/03 07:27:47;;;;;;;50.85;27.45;;;1.40;99.90;;;;;;5055805;28;20067;-75
2021/12/03 07:30:16;;;;;;;46.90;26.67;;;1.40;99.90;;;;;;5055609;28;20041;-75
2021/12/03 07:32:42;;;;;;;55.08;28.30;;;1.40;99.90;;;;;;5055332;28;20037;-75
2021/12/03 07:35:09;;;;;;;52.08;27.67;;;1.40;99.90;;;;;;5055187;28;20091;-75
2021/12/03 07:37:36;;;;;;;54.38;27.25;;;1.40;99.90;;;;;;5055349;28;20041;-75
2021/12/03 07:40:06;;;;;;;50.15;27.25;;;1.40;99.90;;;;;;5055932;28;20040;-74
2021/12/03 07:42:33;;;;;;;51.60;27.73;;;1.40;99.90;;;;;;5055393;28;20134;-75
2021/12/03 07:45:00;;;;;;;51.03;28.52;;;1.50;99.90;;;;;;5037782;28;20394;-76
2021/12/03 07:47:26;;;;;;;58.78;28.92;;;1.50;99.90;;;;;;5054867;28;20052;-75
2021/12/03 07:49:52;;;;;;;50.83;28.33;;;1.50;99.90;;;;;;5054909;28;20045;-73
2021/12/03 07:52:20;;;;;;;58.30;28.70;;;1.50;99.90;;;;;;5054570;28;20474;-77
2021/12/03 07:54:46;;;;;;;55.90;30.27;;;1.50;99.90;;;;;;5053486;28;20040;-74
2021/12/03 07:57:12;;;;;;;62.30;30.30;;;1.50;99.90;;;;;;5054603;28;20047;-75
2021/12/03 07:59:38;;;;;;;56.35;29.90;;;1.50;99.90;;;;;;5054976;28;20123;-75
2021/12/03 08:02:04;;;;;;;50.80;29.63;;;1.60;99.90;;;;;;5054622;28;20120;-75
2021/12/03 08:04:30;;;;;;;63.88;30.05;;;1.60;99.90;;;;;;5055256;28;20041;-73
2021/12/03 08:06:55;;;;;;;57.53;30.15;;;1.60;99.90;;;;;;5054920;28;20397;-74
2021/12/03 08:09:22;;;;;;;62.10;31.45;;;1.60;99.90;;;;;;5055298;28;20055;-74
2021/12/03 08:11:50;;;;;;;58.72;31.60;;;1.70;99.90;;;;;;5054899;28;20087;-73
2021/12/03 08:14:16;;;;;;;53.22;29.95;;;1.70;99.90;;;;;;5054569;28;20033;-74
2021/12/03 08:16:43;;;;;;;64.75;33.35;;;1.70;99.90;;;;;;5054020;28;20036;-73
2021/12/03 08:19:08;;;;;;;65.13;32.08;;;1.70;99.90;;;;;;5037641;28;20037;-73
2021/12/03 08:21:34;;;;;;;74.15;37.40;;;1.70;99.90;;;;;;5038343;28;20391;-73
2021/12/03 08:24:01;;;;;;;77.47;35.45;;;1.70;99.90;;;;;;5054543;28;20472;-73
2021/12/03 08:26:28;;;;;;;77.07;35.63;;;1.80;99.90;;;;;;5054588;28;20459;-73
2021/12/03 08:28:54;;;;;;;72.40;36.20;;;1.80;99.90;;;;;;5053888;28;20475;-72
2021/12/03 08:31:20;;;;;;;77.70;36.67;;;1.80;99.90;;;;;;5053984;28;20052;-75
2021/12/03 08:33:46;;;;;;;71.75;35.30;;;1.80;99.90;;;;;;5054394;28;20468;-74
2021/12/03 08:36:13;;;;;;;76.45;35.70;;;1.80;99.90;;;;;;5037879;28;20483;-75
2021/12/03 08:38:39;;;;;;;76.78;35.72;;;1.80;99.90;;;;;;5054686;28;20086;-75
2021/12/03 08:41:05;;;;;;;75.80;35.85;;;1.90;99.90;;;;;;5053614;28;20369;-75
2021/12/03 08:43:31;;;;;;;82.20;35.28;;;1.90;99.90;;;;;;5053671;28;20513;-74
2021/12/03 08:45:57;;;;;;;83.03;35.38;;;1.90;99.90;;;;;;5054113;28;20502;-75
2021/12/03 08:48:24;;;;;;;82.13;35.92;;;2.00;99.90;;;;;;5054454;28;20049;-74
2021/12/03 08:51:15;;;;;;;88.28;36.85;;;2.00;99.90;;;;;;5054316;28;20053;-74
2021/12/03 08:56:24;;;;;;;83.85;36.63;;;2.10;99.90;;;;;;5052561;28;20365;-75
2021/12/03 08:58:50;;;;;;;89.38;37.28;;;2.20;99.90;;;;;;5037449;28;20535;-74
2021/12/03 09:01:16;;;;;;;92.07;38.28;;;2.20;99.90;;;;;;5054355;28;20043;-73
2021/12/03 09:03:41;;;;;;;81.57;36.05;;;2.20;99.90;;;;;;5037352;28;20040;-73
2021/12/03 09:06:07;;;;;;;78.47;35.97;;;2.30;99.90;;;;;;5053488;28;20048;-72
2021/12/03 09:08:33;;;;;;;79.20;36.67;;;2.30;99.90;;;;;;5053536;28;20041;-73
2021/12/03 09:10:58;;;;;;;87.03;36.65;;;2.30;99.90;;;;;;5053547;28;20048;-73
2021/12/03 09:13:24;;;;;;;83.72;36.00;;;2.30;99.90;;;;;;5053828;28;20034;-74
2021/12/03 09:15:56;;;;;;;78.63;34.88;;;2.40;99.90;;;;;;5054175;28;20459;-74
2021/12/03 09:26:15;;;;;;;75.07;31.98;;;2.50;99.90;;;;;;5053752;28;20112;-73
2021/12/03 09:28:45;;;;;;;70.47;32.55;;;2.50;99.90;;;;;;5053527;28;20045;-73
2021/12/03 09:31:11;;;;;;;79.13;31.95;;;2.50;99.90;;;;;;5053239;28;20049;-72
2021/12/03 09:33:40;;;;;;;72.47;31.58;;;2.60;99.90;;;;;;5053597;28;20138;-74
2021/12/03 09:36:08;;;;;;;70.63;30.75;;;2.60;99.90;;;;;;5053460;28;20396;-73
2021/12/03 09:38:35;;;;;;;72.55;30.88;;;2.60;99.90;;;;;;5053570;28;20065;-72
2021/12/03 09:41:08;;;;;;;68.70;29.00;;;2.60;99.90;;;;;;5052409;28;20076;-73
2021/12/03 09:43:36;;;;;;;64.78;27.63;;;2.70;99.90;;;;;;5052560;28;20374;-73
2021/12/03 09:46:10;;;;;;;65.13;27.55;;;2.70;99.90;;;;;;5052444;28;20064;-73
2021/12/03 09:49:19;;;;;;;56.60;25.83;;;2.70;99.90;;;;;;5052443;28;20048;-72
2021/12/03 09:51:29;;;;;;;64.13;27.45;;;2.70;99.90;;;;;;5051855;28;20060;-73
2021/12/03 09:56:40;;;;;;;70.35;28.17;;;2.80;99.90;;;;;;5051589;28;20487;-73
2021/12/03 10:15:17;;;;;;;54.50;23.17;;;3.00;99.90;;;;;;5051528;28;20049;-74
2021/12/03 10:18:09;;;;;;;45.83;21.85;;;3.00;99.90;;;;;;5051893;28;20368;-74
2021/12/03 10:29:16;;;;;;;50.53;19.63;;;3.10;99.90;;;;;;5033874;28;20134;-74
2021/12/03 10:39:56;;;;;;;37.13;15.48;;;3.20;99.90;;;;;;5051703;28;20081;-74
2021/12/03 10:42:49;;;;;;;39.60;14.07;;;3.10;99.90;;;;;;5051701;28;20068;-73
2021/12/03 10:45:43;;;;;;;34.83;13.02;;;3.10;99.90;;;;;;5051541;28;20048;-74
2021/12/03 10:48:28;;;;;;;32.60;12.82;;;3.10;99.90;;;;;;5051491;28;20055;-74
2021/12/03 10:51:57;;;;;;;28.23;11.30;;;3.10;99.90;;;;;;5051644;28;20045;-74
2021/12/03 10:53:58;;;;;;;31.67;12.50;;;3.10;99.90;;;;;;5046475;28;20076;-74
2021/12/03 11:13:02;;;;;;;24.77;9.02;;;3.30;99.90;;;;;;5037340;28;20547;-73
2021/12/03 11:29:12;;;;;;;18.92;6.53;;;3.20;99.90;;;;;;5054951;28;20041;-73
2021/12/03 11:54:58;;;;;;;16.42;6.22;;;3.20;99.90;;;;;;5054840;28;20376;-73
2021/12/03 13:14:35;;;;;;;28.77;10.27;;;3.00;99.90;;;;;;5054283;28;20094;-74
2021/12/03 13:28:26;;;;;;;23.77;9.95;;;3.10;99.90;;;;;;5053176;28;20061;-73
2021/12/03 13:35:00;;;;;;;20.92;9.60;;;3.20;99.90;;;;;;5035739;28;20051;-75
2021/12/03 14:55:09;;;;;;;18.20;7.40;;;3.90;99.90;;;;;;5050748;28;20049;-74
2021/12/03 14:57:52;;;;;;;18.50;6.72;;;3.90;99.90;;;;;;5051453;28;20075;-75
2021/12/03 15:00:48;;;;;;;19.23;6.35;;;4.00;99.90;;;;;;5050941;28;20045;-74
2021/12/03 15:09:04;;;;;;;15.60;6.90;;;4.10;99.90;;;;;;5050846;28;20055;-74
2021/12/03 15:56:11;;;;;;;15.23;8.48;;;4.10;99.90;;;;;;5054114;28;20418;-74
2021/12/03 16:09:53;;;;;;;13.70;7.68;;;4.10;99.90;;;;;;5053849;28;20479;-74
2021/12/03 16:11:52;;;;;;;12.40;7.78;;;4.10;99.90;;;;;;5050829;28;20045;-74
2021/12/03 16:27:26;;;;;;;12.77;8.35;;;4.10;99.90;;;;;;5053735;28;20051;-73
2021/12/03 16:43:48;;;;;;;10.73;8.27;;;4.20;99.90;;;;;;5033539;28;20041;-73
2021/12/03 16:51:52;;;;;;;16.58;9.80;;;4.10;99.90;;;;;;5033326;28;20037;-74
2021/12/03 16:54:41;;;;;;;12.05;9.50;;;4.10;99.90;;;;;;5037456;28;20045;-74
2021/12/03 16:57:08;;;;;;;14.27;9.63;;;4.10;99.90;;;;;;5052919;28;20106;-75
2021/12/03 16:59:33;;;;;;;12.82;9.75;;;4.10;99.90;;;;;;5053212;28;20049;-74
2021/12/03 17:15:19;;;;;;;13.32;10.35;;;4.10;99.90;;;;;;5043744;28;20045;-75
2021/12/03 17:57:52;;;;;;;21.55;16.17;;;4.20;99.90;;;;;;5052213;28;20048;-74
2021/12/03 18:03:27;;;;;;;23.52;15.65;;;4.20;99.90;;;;;;5039834;28;20449;-73
2021/12/03 18:08:34;;;;;;;21.35;16.38;;;4.20;99.90;;;;;;5051950;28;20055;-72
2021/12/03 18:16:46;;;;;;;24.60;17.67;;;4.20;99.90;;;;;;5051748;28;20044;-71
2021/12/03 18:44:03;;;;;;;36.30;24.13;;;4.20;99.90;;;;;;5050716;28;20123;-73
2021/12/03 18:59:09;;;;;;;29.85;20.88;;;4.30;99.90;;;;;;5049467;28;20387;-75
2021/12/03 19:01:36;;;;;;;32.42;22.52;;;4.30;99.90;;;;;;5049422;28;20037;-73
2021/12/03 19:04:23;;;;;;;29.50;21.65;;;4.30;99.90;;;;;;5050693;28;20051;-73
2021/12/03 19:09:24;;;;;;;;;;;4.30;99.90;;;;;;5051770;28;20052;-75
2021/12/03 19:11:59;;;;;;;32.53;21.25;;;4.30;99.90;;;;;;5050738;28;20370;-73
2021/12/03 19:14:26;;;;;;;27.73;19.88;;;4.30;99.90;;;;;;5037624;28;20051;-74
2021/12/03 19:16:52;;;;;;;34.53;22.85;;;4.30;99.90;;;;;;5055213;28;20033;-73
2021/12/03 19:19:18;;;;;;;31.48;21.33;;;4.30;99.90;;;;;;5038513;28;20386;-74
2021/12/03 19:21:46;;;;;;;33.10;22.38;;;4.40;99.90;;;;;;5054408;28;20044;-73
2021/12/03 19:24:14;;;;;;;29.42;20.50;;;4.30;99.90;;;;;;5053072;28;20045;-73
2021/12/03 19:26:45;;;;;;;31.20;20.35;;;4.40;99.90;;;;;;5053943;28;20478;-74
2021/12/03 19:29:14;;;;;;;28.73;21.02;;;4.40;99.90;;;;;;5053611;28;20045;-74
2021/12/03 19:31:42;;;;;;;29.10;20.45;;;4.40;99.90;;;;;;5053726;28;20368;-73
2021/12/03 19:34:09;;;;;;;30.98;21.98;;;4.40;99.90;;;;;;5054694;28;20041;-73
2021/12/03 19:36:39;;;;;;;35.63;25.70;;;4.40;99.90;;;;;;5054768;28;20045;-73
2021/12/03 19:39:07;;;;;;;35.03;22.77;;;4.40;99.90;;;;;;5038247;28;20123;-75
2021/12/03 19:41:46;;;;;;;36.80;27.13;;;4.40;99.90;;;;;;5054500;28;20098;-74
2021/12/03 19:44:31;;;;;;;40.50;29.67;;;4.40;99.90;;;;;;5053254;28;20071;-74
2021/12/03 19:46:56;;;;;;;38.47;28.23;;;4.40;99.90;;;;;;5054384;28;20049;-73
2021/12/03 19:52:05;;;;;;;37.75;23.08;;;4.40;99.90;;;;;;5054580;28;20095;-73
2021/12/03 19:54:31;;;;;;;38.90;22.67;;;4.40;99.90;;;;;;5054373;28;20044;-74
2021/12/03 19:56:56;;;;;;;30.75;20.98;;;4.40;99.90;;;;;;5054390;28;20041;-74
2021/12/03 19:59:22;;;;;;;31.90;21.33;;;4.40;99.90;;;;;;5053183;28;20100;-74
2021/12/03 20:01:48;;;;;;;34.08;21.80;;;4.30;99.90;;;;;;5054348;28;20044;-73
2021/12/03 20:04:14;;;;;;;34.03;20.85;;;4.30;99.90;;;;;;5037697;28;20049;-73
2021/12/03 20:06:44;;;;;;;34.35;21.73;;;4.40;99.90;;;;;;5054390;28;20044;-74
2021/12/03 20:09:16;;;;;;;41.65;23.70;;;4.40;99.90;;;;;;5037248;28;20048;-72
2021/12/03 20:11:47;;;;;;;44.67;25.17;;;4.30;99.90;;;;;;5060018;28;20383;-73
2021/12/03 20:14:13;;;;;;;43.38;24.88;;;4.30;99.90;;;;;;5053942;28;20052;-73
2021/12/03 20:16:48;;;;;;;73.50;34.92;;;4.40;99.90;;;;;;5053555;28;20056;-73
2021/12/03 20:21:47;;;;;;;37.35;23.55;;;4.40;99.90;;;;;;5053567;28;20430;-74
2021/12/03 20:24:46;;;;;;;48.95;27.95;;;4.40;99.90;;;;;;5052826;28;20391;-74
2021/12/03 20:27:06;;;;;;;55.67;29.33;;;4.40;99.90;;;;;;5051721;28;20510;-73
2021/12/03 20:32:35;;;;;;;48.85;28.15;;;4.40;99.90;;;;;;5053297;28;20116;-74
2021/12/03 20:37:47;;;;;;;60.90;32.10;;;4.40;99.90;;;;;;5033878;28;20048;-76
2021/12/03 20:48:02;;;;;;;35.67;21.90;;;4.40;99.90;;;;;;5051093;28;20048;-73